createdAt,value
2019-02-12T00:03:02.061Z,97201.16
2019-02-12T00:08:09.572Z,97213.09
2019-02-12T00:13:17.071Z,97211.38
2019-02-12T00:18:24.571Z,97216.98
2019-02-12T00:23:32.002Z,97221.13
2019-02-12T00:28:39.403Z,97227.30
2019-02-12T00:33:46.987Z,97222.48
2019-02-12T00:38:54.837Z,97233.75
2019-02-12T00:44:03.417Z,97254.03
2019-02-12T00:49:10.989Z,97274.70
2019-02-12T00:54:26.568Z,97272.91
2019-02-12T00:59:40.923Z,97270.75
2019-02-12T01:04:57.338Z,97274.07
2019-02-12T01:10:15.025Z,97255.50
2019-02-12T01:15:30.089Z,97270.09
2019-02-12T01:20:46.463Z,97256.45
2019-02-12T01:26:07.873Z,97252.17
2019-02-12T01:31:23.418Z,97257.69
2019-02-12T01:36:42.228Z,97261.25
2019-02-12T01:41:51.611Z,97259.45
2019-02-12T01:47:04.464Z,97258.59
2019-02-12T01:52:14.514Z,97270.48
2019-02-12T01:57:32.966Z,97277.70
2019-02-12T02:03:03.040Z,97293.75
2019-02-12T02:08:15.401Z,97269.94
2019-02-12T02:13:26.140Z,97274.22
2019-02-12T02:18:33.138Z,97276.16
2019-02-12T02:23:40.514Z,97271.22
2019-02-12T02:28:47.513Z,97278.03
2019-02-12T02:33:54.911Z,97286.69
2019-02-12T02:39:02.384Z,97290.11
2019-02-12T02:44:09.926Z,97305.92
2019-02-12T02:49:17.386Z,97315.58
2019-02-12T02:54:24.963Z,97312.56
2019-02-12T02:59:32.395Z,97321.73
2019-02-12T03:04:40.678Z,97326.48
2019-02-12T03:09:48.486Z,97333.22
2019-02-12T03:14:55.888Z,97327.38
2019-02-12T03:20:15.580Z,97330.47
2019-02-12T03:25:23.111Z,97341.23
2019-02-12T03:30:30.423Z,97344.14
2019-02-12T03:35:37.922Z,97349.36
2019-02-12T03:40:45.086Z,97370.45
2019-02-12T03:45:52.498Z,97375.94
2019-02-12T03:51:00.718Z,97373.52
2019-02-12T03:56:07.815Z,97355.50
2019-02-12T04:01:15.021Z,97376.05
2019-02-12T04:06:22.387Z,97371.89
2019-02-12T04:11:30.750Z,97374.73
2019-02-12T04:16:38.093Z,97382.03
2019-02-12T04:21:45.561Z,97377.31
2019-02-12T04:26:52.973Z,97380.96
2019-02-12T04:32:00.403Z,97370.31
2019-02-12T04:37:08.097Z,97388.14
2019-02-12T08:47:04.937Z,97587.64
2019-02-12T08:52:12.840Z,97596.55
2019-02-12T08:57:20.270Z,97593.41
2019-02-12T09:02:27.653Z,97597.91
2019-02-12T09:07:34.974Z,97608.95
2019-02-12T09:12:42.672Z,97610.91
2019-02-12T09:17:50.066Z,97625.81
2019-02-12T09:22:57.819Z,97628.07
2019-02-12T09:28:04.926Z,97642.34
2019-02-12T09:33:12.006Z,97634.72
2019-02-12T09:38:19.371Z,97634.22
2019-02-12T09:43:26.878Z,97628.58
2019-02-12T09:48:34.117Z,97651.13
2019-02-12T09:53:41.482Z,97661.16
2019-02-12T09:58:48.789Z,97686.11
2019-02-12T10:03:56.755Z,97702.64
2019-02-12T10:09:05.370Z,97709.25
2019-02-12T10:14:12.739Z,97697.87
2019-02-12T10:19:20.047Z,97708.26
2019-02-12T10:24:27.997Z,97713.66
2019-02-12T10:29:35.378Z,97707.63
2019-02-12T10:34:42.572Z,97715.85
2019-02-12T10:39:49.962Z,97716.77
2019-02-12T10:44:57.369Z,97713.95
2019-02-12T10:50:05.377Z,97714.52
2019-02-12T10:55:13.406Z,97717.66
2019-02-12T11:00:21.133Z,97721.55
2019-02-12T11:05:28.522Z,97733.95
2019-02-12T11:10:35.939Z,97726.81
2019-02-12T11:15:43.539Z,97727.87
2019-02-12T11:20:50.947Z,97705.01
2019-02-12T11:25:58.449Z,97702.81
2019-02-12T11:31:05.850Z,97696.10
2019-02-12T11:36:14.378Z,97701.86
2019-02-12T11:41:22.363Z,97701.30
2019-02-12T11:46:30.024Z,97705.90
2019-02-12T11:51:38.248Z,97711.27
2019-02-12T11:56:46.371Z,97712.16
2019-02-12T12:01:53.770Z,97707.64
2019-02-12T12:07:02.055Z,97707.12
2019-02-12T12:12:10.007Z,97717.16
2019-02-12T12:17:18.369Z,97717.27
2019-02-12T12:22:26.216Z,97716.91
2019-02-12T12:27:34.055Z,97726.31
2019-02-12T12:32:41.461Z,97732.00
2019-02-12T12:37:48.872Z,97736.20
2019-02-12T12:42:56.275Z,97740.38
2019-02-12T12:48:03.700Z,97745.27
2019-02-12T12:53:11.036Z,97754.22
2019-02-12T12:58:18.593Z,97754.44
2019-02-12T13:03:26.128Z,97763.62
2019-02-12T13:08:33.605Z,97759.00
2019-02-12T13:13:41.134Z,97767.44
2019-02-12T13:18:48.511Z,97766.31
2019-02-12T13:23:55.914Z,97766.17
2019-02-12T13:29:03.551Z,97770.52
2019-02-12T13:34:10.863Z,97785.37
2019-02-12T13:39:17.868Z,97789.39
2019-02-12T13:44:25.154Z,97800.34
2019-02-12T13:49:32.528Z,97793.58
2019-02-12T13:54:39.943Z,97797.81
2019-02-12T13:59:47.382Z,97798.94
2019-02-12T14:04:54.972Z,97814.73
2019-02-12T14:10:02.417Z,97808.97
2019-02-12T14:15:09.963Z,97806.30
2019-02-12T14:20:17.487Z,97818.39
2019-02-12T14:25:25.891Z,97822.23
2019-02-12T14:30:33.030Z,97828.40
2019-02-12T14:35:40.501Z,97835.06
2019-02-12T14:40:47.900Z,97840.00
2019-02-12T14:45:54.897Z,97853.88
2019-02-12T14:51:14.689Z,97852.81
2019-02-12T14:56:21.957Z,97862.46
2019-02-12T15:01:29.494Z,97867.89
2019-02-12T15:06:37.141Z,97875.75
2019-02-12T15:11:44.527Z,97871.50
2019-02-12T15:16:51.378Z,97872.78
2019-02-12T15:21:58.638Z,97876.19
2019-02-12T15:27:05.911Z,97885.45
2019-02-12T15:32:13.370Z,97886.58
2019-02-12T15:37:21.031Z,97878.66
2019-02-12T15:42:29.565Z,97876.94
2019-02-12T15:47:37.882Z,97885.74
2019-02-12T15:52:48.507Z,97887.78
2019-02-12T15:57:56.582Z,97901.25
2019-02-12T16:03:04.635Z,97906.08
2019-02-12T16:08:11.803Z,97917.22
2019-02-12T16:13:18.993Z,97915.97
2019-02-12T16:18:26.539Z,97922.20
2019-02-12T16:23:33.914Z,97923.33
2019-02-12T16:28:41.513Z,97935.80
2019-02-12T16:33:49.039Z,97932.79
2019-02-12T16:38:56.559Z,97945.59
2019-02-12T16:44:06.006Z,97951.17
2019-02-12T16:49:14.768Z,97952.63
2019-02-12T16:54:22.088Z,97956.58
2019-02-12T16:59:29.656Z,97964.65
2019-02-12T17:04:48.877Z,97965.48
2019-02-12T17:09:53.770Z,97977.55
2019-02-12T17:15:02.947Z,97985.75
2019-02-12T17:20:11.097Z,97995.70
2019-02-12T17:25:24.220Z,97996.19
2019-02-12T17:30:31.877Z,98006.93
2019-02-12T17:35:39.868Z,98009.41
2019-02-12T17:40:47.375Z,98018.24
2019-02-12T17:46:00.262Z,98011.30
2019-02-12T17:51:16.666Z,98018.69
2019-02-12T17:56:33.365Z,98022.34
2019-02-12T18:01:49.293Z,98031.43
2019-02-12T18:07:04.587Z,98044.14
2019-02-12T18:12:19.478Z,98050.02
2019-02-12T18:17:33.238Z,98056.42
2019-02-12T18:22:46.516Z,98061.67
2019-02-12T18:28:16.353Z,98059.86
2019-02-12T18:33:35.021Z,98068.30
2019-02-12T18:38:53.252Z,98072.33
2019-02-12T18:44:06.394Z,98080.52
2019-02-12T18:49:26.837Z,98077.02
2019-02-12T18:54:43.713Z,98078.53
2019-02-12T19:00:02.956Z,98075.27
2019-02-12T19:05:15.180Z,98089.30
2019-02-12T19:10:28.279Z,98088.28
2019-02-12T19:15:41.979Z,98084.72
2019-02-12T19:20:57.544Z,98096.30
2019-02-12T19:26:09.729Z,98091.41
2019-02-12T19:31:23.324Z,98088.41
2019-02-12T19:36:39.221Z,98101.61
2019-02-12T19:41:57.369Z,98094.16
2019-02-12T19:47:12.495Z,98107.85
2019-02-12T19:52:26.558Z,98100.40
2019-02-12T19:57:40.011Z,98105.83
2019-02-12T20:03:02.364Z,98107.28
2019-02-12T20:08:22.708Z,98106.02
2019-02-12T20:13:39.643Z,98104.13
2019-02-12T20:18:55.542Z,98111.91
2019-02-12T20:24:13.027Z,98118.09
2019-02-12T20:29:29.420Z,98119.80
2019-02-12T20:34:52.140Z,98111.33
2019-02-12T20:40:09.318Z,98119.90
2019-02-12T20:45:27.754Z,98118.31
2019-02-12T20:50:46.486Z,98114.95
2019-02-12T20:56:22.312Z,98112.19
2019-02-12T21:01:33.378Z,98117.30
2019-02-12T21:06:47.676Z,98119.59
2019-02-12T21:12:05.473Z,98115.62
2019-02-12T21:17:13.303Z,98111.10
2019-02-12T21:22:33.883Z,98115.55
2019-02-12T21:27:51.350Z,98111.77
2019-02-12T21:33:03.939Z,98112.55
2019-02-12T21:38:22.609Z,98116.28
2019-02-12T21:43:36.648Z,98136.72
2019-02-12T21:48:46.742Z,98143.41
2019-02-12T21:54:02.019Z,98129.03
2019-02-12T21:59:15.142Z,98146.33
2019-02-12T22:04:29.875Z,98139.49
2019-02-12T22:09:44.477Z,98143.93
2019-02-12T22:15:02.706Z,98137.61
2019-02-12T22:20:21.333Z,98130.73
2019-02-12T22:25:27.628Z,98135.88
2019-02-12T22:30:43.035Z,98143.41
2019-02-12T22:35:57.496Z,98154.15
2019-02-12T22:41:11.138Z,98151.27
2019-02-12T22:46:24.118Z,98159.48
2019-02-12T22:51:38.419Z,98160.35
2019-02-12T22:56:52.617Z,98154.13
2019-02-12T23:02:02.790Z,98150.88
2019-02-12T23:07:29.149Z,98153.23
2019-02-12T23:12:40.225Z,98152.44
2019-02-12T23:17:50.875Z,98156.16
2019-02-12T23:23:07.038Z,98160.31
2019-02-12T23:28:15.521Z,98171.44
2019-02-12T23:33:25.250Z,98173.67
2019-02-12T23:38:33.831Z,98163.05
2019-02-12T23:43:41.964Z,98175.18
2019-02-12T23:48:49.832Z,98181.45
2019-02-12T23:54:08.383Z,98188.14
2019-02-12T23:59:15.990Z,98180.48
